createdAt,value
2022-09-06T02:21:28.271Z,98807.34
2022-09-06T02:23:58.836Z,98808.13
2022-09-06T02:26:30.043Z,98799.66
2022-09-06T02:28:57.726Z,98808.66
2022-09-06T02:31:59.106Z,98806.53
2022-09-06T02:34:25.944Z,98804.19
2022-09-06T02:36:52.806Z,98803.97
2022-09-06T02:39:19.866Z,98807.97
2022-09-06T02:41:48.265Z,98805.06
2022-09-06T02:44:15.422Z,98802.44
2022-09-06T02:46:42.416Z,98800.06
2022-09-06T02:49:09.081Z,98797.16
2022-09-06T02:51:39.529Z,98797.94
2022-09-06T02:54:06.858Z,98800.91
2022-09-06T02:56:34.746Z,98803.25
2022-09-06T02:59:01.777Z,98799.56
2022-09-06T03:01:28.570Z,98799.84
2022-09-06T03:03:56.188Z,98803.25
2022-09-06T03:06:22.940Z,98795.59
2022-09-06T03:08:50.183Z,98807.50
2022-09-06T03:11:16.931Z,98799.31
2022-09-06T03:13:43.798Z,98795.38
2022-09-06T03:16:10.865Z,98797.75
2022-09-06T03:18:37.649Z,98800.41
2022-09-06T03:21:04.606Z,98804.38
2022-09-06T03:23:31.435Z,98805.94
2022-09-06T03:25:58.452Z,98807.28
2022-09-06T03:28:27.320Z,98806.50
2022-09-06T03:30:54.844Z,98809.91
2022-09-06T03:33:21.857Z,98801.69
2022-09-06T03:35:58.473Z,98805.94
2022-09-06T03:38:26.843Z,98801.72
2022-09-06T03:40:55.304Z,98794.31
2022-09-06T03:43:24.101Z,98796.44
2022-09-06T03:45:54.758Z,98790.91
2022-09-06T03:48:23.940Z,98790.91
2022-09-06T03:50:54.557Z,98790.88
2022-09-06T03:53:22.841Z,98787.47
2022-09-06T03:55:54.410Z,98788.56
2022-09-06T03:58:23.505Z,98788.81
2022-09-06T04:00:59.582Z,98793.31
2022-09-06T04:03:26.486Z,98791.47
2022-09-06T04:05:53.275Z,98789.31
2022-09-06T04:08:20.082Z,98786.97
2022-09-06T04:10:50.940Z,98789.59
2022-09-06T04:13:17.675Z,98793.03
2022-09-06T04:15:50.285Z,98786.16
2022-09-06T04:18:17.472Z,98787.47
2022-09-06T04:20:47.804Z,98788.03
2022-09-06T04:23:14.667Z,98787.47
2022-09-06T04:25:41.397Z,98788.03
2022-09-06T04:28:08.336Z,98778.75
2022-09-06T04:30:34.831Z,98781.69
2022-09-06T04:33:01.299Z,98776.91
2022-09-06T04:35:27.816Z,98778.75
2022-09-06T04:37:54.985Z,98782.41
2022-09-06T04:40:21.549Z,98782.16
2022-09-06T04:42:48.082Z,98779.25
2022-09-06T04:45:14.672Z,98784.56
2022-09-06T04:47:41.140Z,98786.09
2022-09-06T04:50:08.120Z,98781.34
2022-09-06T04:52:34.606Z,98789.28
2022-09-06T04:55:01.370Z,98787.38
2022-09-06T04:57:28.034Z,98785.75
2022-09-06T04:59:54.718Z,98797.69
2022-09-06T05:02:21.664Z,98783.09
2022-09-06T05:04:48.968Z,98772.75
2022-09-06T05:07:16.415Z,98768.44
2022-09-06T05:09:43.233Z,98765.75
2022-09-06T05:12:14.058Z,98778.75
2022-09-06T05:14:41.117Z,98780.31
2022-09-06T05:17:13.968Z,98774.53
2022-09-06T05:19:43.630Z,98781.66
2022-09-06T05:22:11.948Z,98781.66
2022-09-06T05:24:46.127Z,98790.38
2022-09-06T05:27:14.517Z,98798.31
2022-09-06T05:29:51.693Z,98806.47
2022-09-06T05:32:22.233Z,98814.59
2022-09-06T05:34:49.602Z,98817.44
2022-09-06T05:37:18.290Z,98814.94
2022-09-06T05:39:48.260Z,98805.84
2022-09-06T05:42:19.136Z,98802.59
2022-09-06T05:44:59.690Z,98814.84
2022-09-06T05:47:26.487Z,98812.94
2022-09-06T05:49:54.233Z,98812.19
2022-09-06T05:52:21.264Z,98816.28
2022-09-06T05:54:55.524Z,98820.25
2022-09-06T05:57:24.765Z,98820.66
2022-09-06T06:00:02.357Z,98818.50
2022-09-06T06:02:29.816Z,98806.44
2022-09-06T06:07:41.235Z,98801.81
2022-09-06T06:10:08.887Z,98806.38
2022-09-06T06:12:38.583Z,98812.50
2022-09-06T06:15:06.520Z,98812.84
2022-09-06T06:20:39.435Z,98802.69
2022-09-06T06:31:21.909Z,98787.16
2022-09-06T06:33:53.338Z,98782.94
2022-09-06T06:50:47.945Z,98770.88
2022-09-06T06:53:22.220Z,98772.41
2022-09-06T07:15:29.205Z,98765.00
2022-09-06T07:18:01.330Z,98766.81
2022-09-06T07:20:28.912Z,98773.22
2022-09-06T07:25:51.881Z,98773.84
2022-09-06T07:34:02.032Z,98774.50
2022-09-06T07:36:49.706Z,98777.13
2022-09-06T07:39:33.158Z,98769.88
2022-09-06T07:42:01.842Z,98777.19
2022-09-06T07:53:13.029Z,98767.19
2022-09-06T07:55:53.812Z,98772.75
2022-09-06T07:58:24.926Z,98766.47
2022-09-06T08:00:55.738Z,98769.75
2022-09-06T08:03:30.898Z,98771.63
2022-09-06T08:12:07.988Z,98778.03
2022-09-06T08:14:38.790Z,98779.94
2022-09-06T08:22:58.501Z,98779.06
2022-09-06T08:25:32.978Z,98773.53
2022-09-06T08:28:18.146Z,98770.28
2022-09-06T08:30:47.104Z,98774.16
2022-09-06T08:43:00.396Z,98775.28
2022-09-06T08:45:27.979Z,98773.72
2022-09-06T08:54:50.909Z,98771.06
2022-09-06T08:57:51.578Z,98758.44
2022-09-06T09:00:54.959Z,98766.94
2022-09-06T09:03:25.572Z,98767.47
2022-09-06T09:06:00.838Z,98770.66
2022-09-06T09:08:48.369Z,98767.25
2022-09-06T09:11:21.363Z,98763.94
2022-09-06T09:13:56.558Z,98763.22
2022-09-06T09:16:35.563Z,98762.00
2022-09-06T09:19:05.006Z,98764.50
2022-09-06T09:24:29.877Z,98756.13
2022-09-06T09:33:39.419Z,98733.28
2022-09-06T09:36:11.684Z,98732.94
2022-09-06T09:38:45.840Z,98729.53
2022-09-06T09:45:46.965Z,98720.19
2022-09-06T10:02:54.695Z,98696.97
2022-09-06T10:08:02.553Z,98692.09
2022-09-06T10:10:42.032Z,98696.84
2022-09-06T10:13:20.540Z,98696.72
2022-09-06T10:15:49.739Z,98690.44
2022-09-06T10:18:45.753Z,98686.06
2022-09-06T10:21:23.461Z,98698.47
2022-09-06T10:28:10.548Z,98693.88
2022-09-06T10:34:09.804Z,98695.91
2022-09-06T10:36:51.705Z,98692.94
2022-09-06T10:39:31.081Z,98697.28
2022-09-06T10:45:07.586Z,98689.75
2022-09-06T10:56:48.446Z,98674.19
2022-09-06T11:05:42.047Z,98664.63
2022-09-06T11:08:47.932Z,98661.53
2022-09-06T11:11:29.831Z,98660.97
2022-09-06T11:14:02.539Z,98655.56
2022-09-06T11:19:31.132Z,98656.75
2022-09-06T11:28:19.569Z,98652.69
2022-09-06T11:30:49.598Z,98652.81
2022-09-06T11:33:29.115Z,98650.72
2022-09-06T11:48:27.759Z,98617.19
2022-09-06T11:53:51.845Z,98625.56
2022-09-06T11:59:48.553Z,98628.09
2022-09-06T12:02:41.069Z,98613.31
2022-09-06T12:05:35.345Z,98616.13
2022-09-06T12:11:46.703Z,98626.28
2022-09-06T12:17:46.980Z,98625.16
2022-09-06T12:20:55.017Z,98613.75
2022-09-06T12:23:48.288Z,98618.47
2022-09-06T12:27:13.823Z,98609.38
2022-09-06T12:29:51.180Z,98610.03
2022-09-06T12:32:26.453Z,98607.88
2022-09-06T12:38:06.828Z,98604.94
2022-09-06T12:40:48.738Z,98604.03
2022-09-06T12:43:21.743Z,98607.34
2022-09-06T12:45:58.762Z,98592.41
2022-09-06T12:51:26.545Z,98597.84
2022-09-06T12:53:57.761Z,98591.16
2022-09-06T12:56:31.446Z,98585.34
2022-09-06T12:59:25.572Z,98583.56
2022-09-06T13:02:11.797Z,98582.97
2022-09-06T13:08:01.779Z,98586.28
2022-09-06T13:10:32.117Z,98585.06
2022-09-06T13:13:02.666Z,98577.06
2022-09-06T13:15:40.025Z,98577.13
2022-09-06T13:18:38.873Z,98569.31
2022-09-06T13:21:11.478Z,98567.31
2022-09-06T13:23:50.745Z,98563.63
2022-09-06T13:29:28.893Z,98553.00
2022-09-06T13:32:12.924Z,98548.06
2022-09-06T13:35:00.735Z,98546.50
2022-09-06T13:37:46.332Z,98544.38
2022-09-06T13:41:10.733Z,98541.50
2022-09-06T13:44:16.309Z,98542.91
2022-09-06T13:47:06.769Z,98544.81
2022-09-06T13:49:40.415Z,98541.38
2022-09-06T13:55:34.369Z,98528.94
2022-09-06T14:00:49.448Z,98539.81
2022-09-06T14:03:32.516Z,98536.78
2022-09-06T14:06:08.767Z,98529.41
2022-09-06T14:09:05.938Z,98523.72
2022-09-06T14:11:28.810Z,98524.38
2022-09-06T14:13:58.982Z,98526.28
2022-09-06T14:22:01.704Z,98533.66
2022-09-06T14:24:35.042Z,98522.09
2022-09-06T14:27:09.244Z,98523.81
2022-09-06T14:29:38.328Z,98526.66
2022-09-06T14:32:08.043Z,98520.09
2022-09-06T14:34:43.773Z,98516.97
2022-09-06T14:37:13.728Z,98516.22
2022-09-06T14:39:51.202Z,98516.16
2022-09-06T14:45:00.792Z,98507.22
2022-09-06T14:47:33.548Z,98500.22
2022-09-06T14:55:41.581Z,98491.16
2022-09-06T15:03:49.239Z,98480.56
2022-09-06T15:06:50.099Z,98482.47
2022-09-06T15:18:09.600Z,98462.28
2022-09-06T15:26:24.837Z,98469.09
2022-09-06T15:28:56.090Z,98463.13
2022-09-06T15:31:23.689Z,98464.41
2022-09-06T15:33:52.160Z,98460.31
2022-09-06T15:36:33.095Z,98468.94
2022-09-06T15:39:07.599Z,98461.97
2022-09-06T15:41:42.029Z,98461.28
2022-09-06T15:44:14.650Z,98459.16
2022-09-06T15:46:46.271Z,98461.63
2022-09-06T15:49:18.766Z,98454.78
2022-09-06T15:51:49.122Z,98448.06
2022-09-06T15:54:19.067Z,98446.31
2022-09-06T15:56:46.170Z,98451.78
2022-09-06T15:59:13.619Z,98451.50
2022-09-06T16:01:42.240Z,98441.84
2022-09-06T16:04:10.521Z,98451.00
2022-09-06T16:06:42.589Z,98443.34
2022-09-06T16:09:15.158Z,98445.53
2022-09-06T16:11:54.209Z,98442.72
2022-09-06T16:14:22.191Z,98439.59
2022-09-06T16:16:49.728Z,98449.28
2022-09-06T16:19:17.113Z,98440.38
2022-09-06T16:21:44.785Z,98444.19
2022-09-06T16:24:15.570Z,98437.78
2022-09-06T16:26:49.408Z,98437.25
2022-09-06T16:29:20.841Z,98435.75
2022-09-06T16:31:49.585Z,98431.25
2022-09-06T16:34:20.444Z,98431.81
2022-09-06T16:36:48.329Z,98429.41
2022-09-06T16:39:16.082Z,98437.81
2022-09-06T16:41:51.385Z,98430.47
2022-09-06T16:44:32.096Z,98432.69
2022-09-06T16:47:04.339Z,98428.38
2022-09-06T16:49:31.314Z,98435.16
2022-09-06T16:51:58.511Z,98429.28
2022-09-06T16:54:30.178Z,98427.25
2022-09-06T16:56:57.985Z,98427.38
2022-09-06T16:59:28.015Z,98426.41
2022-09-06T17:01:57.657Z,98425.81
2022-09-06T17:04:36.165Z,98427.19
2022-09-06T17:07:05.927Z,98425.28
2022-09-06T17:09:37.578Z,98428.69
2022-09-06T17:12:13.243Z,98424.69
2022-09-06T17:14:45.231Z,98428.50
2022-09-06T17:17:27.506Z,98424.06
2022-09-06T17:20:03.502Z,98419.22
2022-09-06T17:22:30.446Z,98424.25
2022-09-06T17:24:57.734Z,98412.09
2022-09-06T17:27:25.325Z,98415.38
2022-09-06T17:30:20.039Z,98424.72
2022-09-06T17:32:48.815Z,98418.72
2022-09-06T17:35:24.065Z,98422.69
2022-09-06T17:37:53.164Z,98421.41
2022-09-06T17:40:20.423Z,98418.50
2022-09-06T17:42:52.276Z,98421.34
2022-09-06T17:45:21.106Z,98427.19
2022-09-06T17:47:48.972Z,98425.75
2022-09-06T17:50:20.283Z,98423.53
2022-09-06T17:52:50.229Z,98424.47
2022-09-06T18:00:44.014Z,98420.38
2022-09-06T18:03:16.811Z,98427.84
2022-09-06T18:05:55.180Z,98432.97
2022-09-06T18:08:23.197Z,98438.63
2022-09-06T18:10:51.776Z,98440.03
2022-09-06T18:13:20.180Z,98454.78
2022-09-06T18:15:53.416Z,98447.31
2022-09-06T18:26:34.549Z,98458.47
2022-09-06T18:29:05.793Z,98450.50
2022-09-06T18:31:38.070Z,98451.25
2022-09-06T18:34:18.991Z,98459.19
2022-09-06T18:39:29.761Z,98463.22
2022-09-06T18:42:04.683Z,98468.16
2022-09-06T18:49:59.805Z,98472.22
2022-09-06T18:52:32.918Z,98474.16
2022-09-06T18:55:03.516Z,98468.00
2022-09-06T18:57:32.660Z,98472.78
2022-09-06T19:05:24.426Z,98469.72
2022-09-06T19:07:55.386Z,98472.19
2022-09-06T19:10:26.009Z,98466.75
2022-09-06T19:12:54.143Z,98469.91
2022-09-06T19:15:24.071Z,98465.38
2022-09-06T19:17:55.193Z,98461.75
2022-09-06T19:23:07.938Z,98458.94
2022-09-06T19:28:25.301Z,98461.13
2022-09-06T19:37:17.353Z,98453.94
2022-09-06T19:45:18.951Z,98456.06
2022-09-06T19:50:38.374Z,98452.66
2022-09-06T19:59:00.185Z,98473.19
2022-09-06T20:01:31.514Z,98473.00
2022-09-06T20:04:25.828Z,98474.09
2022-09-06T20:18:07.300Z,98460.75
2022-09-06T20:20:59.726Z,98455.50
2022-09-06T20:34:27.437Z,98436.47
2022-09-06T20:36:54.947Z,98426.75
2022-09-06T20:53:26.536Z,98419.56
2022-09-06T20:56:00.675Z,98428.81
2022-09-06T21:21:13.196Z,98447.56
2022-09-06T21:40:15.973Z,98461.50
2022-09-06T21:48:05.671Z,98463.78
2022-09-06T21:50:35.209Z,98455.03
2022-09-06T21:53:02.191Z,98463.06
2022-09-06T21:55:32.943Z,98454.84
2022-09-06T21:57:59.891Z,98461.63
2022-09-06T22:00:30.548Z,98460.66
2022-09-06T22:02:57.602Z,98460.09
2022-09-06T22:05:24.950Z,98474.88
2022-09-06T22:07:51.824Z,98474.97
2022-09-06T22:10:18.869Z,98475.78
2022-09-06T22:12:45.865Z,98477.63
2022-09-06T22:15:13.448Z,98478.63
2022-09-06T22:17:42.919Z,98476.75
2022-09-06T22:20:12.344Z,98469.78
2022-09-06T22:22:41.764Z,98467.72
2022-09-06T22:25:11.188Z,98472.94
2022-09-06T22:27:41.500Z,98474.22
2022-09-06T22:30:11.637Z,98469.91
2022-09-06T22:32:39.065Z,98475.97
2022-09-06T22:35:08.679Z,98470.78
2022-09-06T22:37:38.103Z,98475.00
2022-09-06T22:40:05.887Z,98477.16
2022-09-06T22:42:33.615Z,98475.59
2022-09-06T22:45:04.121Z,98468.50
2022-09-06T22:47:31.016Z,98467.63
2022-09-06T22:49:59.269Z,98473.22
2022-09-06T22:52:28.613Z,98482.84
2022-09-06T22:54:56.165Z,98476.47
2022-09-06T22:57:36.672Z,98482.94
2022-09-06T23:00:07.321Z,98477.34
2022-09-06T23:02:34.276Z,98468.22
2022-09-06T23:05:01.309Z,98465.13
2022-09-06T23:07:28.138Z,98462.19
2022-09-06T23:09:55.077Z,98462.78
2022-09-06T23:12:21.917Z,98461.13
2022-09-06T23:14:49.051Z,98458.47
2022-09-06T23:17:16.327Z,98458.66
2022-09-06T23:19:43.249Z,98455.19
2022-09-06T23:22:14.851Z,98445.38
2022-09-06T23:24:42.256Z,98444.31
2022-09-06T23:27:09.310Z,98449.22
2022-09-06T23:29:36.499Z,98438.91
2022-09-06T23:32:03.760Z,98431.66
2022-09-06T23:34:31.086Z,98433.00
2022-09-06T23:37:02.674Z,98433.41
2022-09-06T23:39:29.965Z,98431.78
2022-09-06T23:41:58.407Z,98428.22
2022-09-06T23:44:25.332Z,98433.31
2022-09-06T23:46:53.415Z,98433.03
2022-09-06T23:49:20.354Z,98427.72
2022-09-06T23:51:50.599Z,98424.22
2022-09-06T23:54:17.929Z,98416.69
2022-09-06T23:56:44.654Z,98416.97
2022-09-06T23:59:11.615Z,98414.16
